createdAt,value
2019-02-25T00:01:35.406Z,24.87
2019-02-25T00:04:04.264Z,24.73
2019-02-25T00:06:33.608Z,24.90
2019-02-25T00:09:02.059Z,24.77
2019-02-25T00:11:32.088Z,24.73
2019-02-25T00:14:00.359Z,22.47
2019-02-25T00:16:28.757Z,22.43
2019-02-25T00:18:56.940Z,24.00
2019-02-25T00:21:25.259Z,24.70
2019-02-25T00:23:53.441Z,23.70
2019-02-25T00:26:21.866Z,25.70
2019-02-25T00:28:50.192Z,24.83
2019-02-25T00:31:18.560Z,25.63
2019-02-25T00:33:46.764Z,24.37
2019-02-25T00:36:15.233Z,23.83
2019-02-25T00:38:43.452Z,24.17
2019-02-25T00:41:12.771Z,24.33
2019-02-25T00:43:41.159Z,25.57
2019-02-25T00:46:09.620Z,24.73
2019-02-25T00:48:38.299Z,23.93
2019-02-25T00:51:06.484Z,23.83
2019-02-25T00:53:34.915Z,23.60
2019-02-25T00:56:03.214Z,26.30
2019-02-25T00:58:31.650Z,26.90
2019-02-25T01:00:59.875Z,28.53
2019-02-25T01:03:28.301Z,22.90
2019-02-25T01:05:56.652Z,22.77
2019-02-25T01:08:26.092Z,23.57
2019-02-25T01:10:54.550Z,21.33
2019-02-25T01:13:22.869Z,22.00
2019-02-25T01:15:51.295Z,22.10
2019-02-25T01:18:19.599Z,22.43
2019-02-25T01:20:48.110Z,20.63
2019-02-25T01:23:16.413Z,20.17
2019-02-25T01:25:44.841Z,19.30
2019-02-25T01:28:13.086Z,20.63
2019-02-25T01:30:41.523Z,19.80
2019-02-25T01:33:09.708Z,19.97
2019-02-25T01:35:38.003Z,19.53
2019-02-25T01:38:06.410Z,19.33
2019-02-25T01:40:34.901Z,19.60
2019-02-25T01:43:03.365Z,20.07
2019-02-25T01:45:31.630Z,17.03
2019-02-25T01:47:59.958Z,17.77
2019-02-25T01:50:28.230Z,17.13
2019-02-25T01:52:56.642Z,17.50
2019-02-25T01:55:24.963Z,17.77
2019-02-25T01:57:53.274Z,18.67
2019-02-25T02:00:21.628Z,17.30
2019-02-25T02:02:49.992Z,17.20
2019-02-25T02:05:18.291Z,16.93
2019-02-25T02:07:46.595Z,15.53
2019-02-25T02:10:15.980Z,16.73
2019-02-25T02:12:44.256Z,16.80
2019-02-25T02:15:13.264Z,16.27
2019-02-25T02:17:41.589Z,16.73
2019-02-25T02:20:10.857Z,15.87
2019-02-25T02:22:39.062Z,18.40
2019-02-25T02:25:07.577Z,16.30
2019-02-25T02:27:35.795Z,17.13
2019-02-25T02:30:04.794Z,17.87
2019-02-25T02:32:33.150Z,17.70
2019-02-25T02:35:01.595Z,19.07
2019-02-25T02:37:29.882Z,19.90
2019-02-25T02:39:58.083Z,20.80
2019-02-25T02:42:26.354Z,20.87
2019-02-25T02:45:02.202Z,20.90
2019-02-25T02:47:41.359Z,20.37
2019-02-25T02:50:11.070Z,21.70
2019-02-25T02:52:40.495Z,19.83
2019-02-25T02:55:08.906Z,20.37
2019-02-25T02:57:37.174Z,21.27
2019-02-25T03:00:07.494Z,21.60
2019-02-25T03:02:35.805Z,20.53
2019-02-25T03:05:04.683Z,22.00
2019-02-25T03:07:33.189Z,21.20
2019-02-25T03:10:01.475Z,22.53
2019-02-25T03:12:30.678Z,21.30
2019-02-25T03:14:59.008Z,21.43
2019-02-25T03:17:27.224Z,20.87
2019-02-25T03:19:55.623Z,20.60
2019-02-25T03:22:23.933Z,20.57
2019-02-25T03:24:52.307Z,21.60
2019-02-25T03:27:20.858Z,20.37
2019-02-25T03:29:49.356Z,21.00
2019-02-25T03:32:17.781Z,19.90
2019-02-25T03:34:46.082Z,21.37
2019-02-25T03:37:14.421Z,20.63
2019-02-25T03:39:42.622Z,21.27
2019-02-25T03:42:11.046Z,21.93
2019-02-25T03:44:39.393Z,20.90
2019-02-25T03:47:07.720Z,22.67
2019-02-25T03:49:36.022Z,20.87
2019-02-25T03:52:04.479Z,20.80
2019-02-25T03:54:32.710Z,19.87
2019-02-25T03:57:01.070Z,20.47
2019-02-25T03:59:29.615Z,19.13
2019-02-25T04:01:57.956Z,21.75
2019-02-25T04:04:26.321Z,20.53
2019-02-25T04:06:54.657Z,20.40
2019-02-25T04:09:23.029Z,20.50
2019-02-25T04:11:51.304Z,21.93
2019-02-25T04:14:20.639Z,20.90
2019-02-25T04:16:49.002Z,22.10
2019-02-25T04:19:17.269Z,21.67
2019-02-25T04:21:45.541Z,21.53
2019-02-25T04:24:13.861Z,21.97
2019-02-25T04:26:42.160Z,22.30
2019-02-25T04:29:10.362Z,22.23
2019-02-25T04:31:38.672Z,21.60
2019-02-25T04:34:06.848Z,21.33
2019-02-25T04:36:35.133Z,21.70
2019-02-25T04:39:05.313Z,22.35
2019-02-25T04:41:33.680Z,22.00
2019-02-25T04:44:02.157Z,21.63
2019-02-25T04:46:30.570Z,21.17
2019-02-25T04:48:58.837Z,21.50
2019-02-25T04:51:27.155Z,22.93
2019-02-25T04:53:56.573Z,20.43
2019-02-25T04:56:27.789Z,20.93
2019-02-25T04:58:57.806Z,21.40
2019-02-25T05:01:26.067Z,21.30
2019-02-25T05:03:54.418Z,20.67
2019-02-25T05:06:22.734Z,20.87
2019-02-25T05:08:50.941Z,19.73
2019-02-25T05:11:21.160Z,15.30
2019-02-25T05:13:49.467Z,19.47
2019-02-25T05:16:18.225Z,16.57
2019-02-25T05:18:46.483Z,18.10
2019-02-25T05:21:14.791Z,19.60
2019-02-25T05:23:43.186Z,19.43
2019-02-25T05:26:11.448Z,19.17
2019-02-25T05:28:46.256Z,18.57
2019-02-25T05:31:14.674Z,18.43
2019-02-25T05:33:43.007Z,18.30
2019-02-25T05:36:11.454Z,18.23
2019-02-25T05:38:39.747Z,19.33
2019-02-25T05:41:08.058Z,19.10
2019-02-25T05:43:36.332Z,20.20
2019-02-25T05:46:04.694Z,19.07
2019-02-25T05:48:33.131Z,20.67
2019-02-25T05:51:21.698Z,20.83
2019-02-25T06:06:38.569Z,24.60
2019-02-25T06:10:32.250Z,26.40
2019-02-25T06:13:02.106Z,27.33
2019-02-25T06:15:30.961Z,26.30
2019-02-25T06:17:59.166Z,28.37
2019-02-25T06:20:27.559Z,35.53
2019-02-25T06:22:55.841Z,34.00
2019-02-25T06:25:24.310Z,26.67
2019-02-25T06:27:52.603Z,31.17
2019-02-25T06:30:21.066Z,33.23
2019-02-25T06:32:49.268Z,35.50
2019-02-25T06:35:17.732Z,35.10
2019-02-25T06:37:46.116Z,33.33
2019-02-25T06:40:15.803Z,30.43
2019-02-25T06:42:45.438Z,30.90
2019-02-25T06:45:14.585Z,29.83
2019-02-25T06:47:43.131Z,35.90
2019-02-25T06:50:11.546Z,30.73
2019-02-25T06:52:39.951Z,29.67
2019-02-25T06:55:09.094Z,29.70
2019-02-25T06:57:37.527Z,29.17
2019-02-25T07:00:06.859Z,29.17
2019-02-25T07:02:35.180Z,30.03
2019-02-25T07:05:27.740Z,26.37
2019-02-25T07:07:59.008Z,26.80
2019-02-25T07:10:46.850Z,26.83
2019-02-25T07:13:23.496Z,27.90
2019-02-25T07:16:14.201Z,29.82
2019-02-25T07:19:02.915Z,24.70
2019-02-25T07:21:46.308Z,24.03
2019-02-25T07:24:32.695Z,26.00
2019-02-25T07:27:16.818Z,30.73
2019-02-25T07:29:59.435Z,29.83
2019-02-25T07:33:05.136Z,28.83
2019-02-25T07:36:10.871Z,27.93
2019-02-25T07:38:52.444Z,25.27
2019-02-25T07:41:38.926Z,21.20
2019-02-25T07:44:18.903Z,18.90
2019-02-25T07:46:59.581Z,20.90
2019-02-25T07:49:59.602Z,17.70
2019-02-25T07:52:35.147Z,19.73
2019-02-25T07:55:27.806Z,19.07
2019-02-25T07:58:24.437Z,18.73
2019-02-25T08:01:04.478Z,18.70
2019-02-25T08:04:00.922Z,19.60
2019-02-25T08:07:03.730Z,20.93
2019-02-25T08:09:36.843Z,19.67
2019-02-25T08:12:16.037Z,19.67
2019-02-25T08:14:52.521Z,19.87
2019-02-25T08:17:40.256Z,19.40
2019-02-25T08:20:26.698Z,20.30
2019-02-25T08:23:14.282Z,20.03
2019-02-25T08:26:13.976Z,20.40
2019-02-25T08:29:05.803Z,21.17
2019-02-25T08:31:55.874Z,20.10
2019-02-25T08:34:39.351Z,17.00
2019-02-25T08:37:31.423Z,17.97
2019-02-25T08:40:38.104Z,19.43
2019-02-25T08:43:19.784Z,20.57
2019-02-25T08:45:56.102Z,17.70
2019-02-25T08:48:32.918Z,19.62
2019-02-25T08:51:01.343Z,18.50
2019-02-25T08:53:29.977Z,17.93
2019-02-25T08:55:58.584Z,17.30
2019-02-25T08:58:26.969Z,16.83
2019-02-25T09:00:55.413Z,17.30
2019-02-25T09:03:23.769Z,18.13
2019-02-25T09:05:52.166Z,18.00
2019-02-25T09:08:20.501Z,17.97
2019-02-25T09:10:48.923Z,18.53
2019-02-25T09:13:17.298Z,18.57
2019-02-25T09:15:45.828Z,19.37
2019-02-25T09:18:14.250Z,18.50
2019-02-25T09:20:44.840Z,19.03
2019-02-25T09:23:13.356Z,18.87
2019-02-25T09:25:41.747Z,17.93
2019-02-25T09:28:10.229Z,18.50
2019-02-25T09:30:38.654Z,19.57
2019-02-25T09:33:06.954Z,18.63
2019-02-25T09:35:35.275Z,17.27
2019-02-25T09:38:03.887Z,17.30
2019-02-25T09:40:32.345Z,16.03
2019-02-25T09:43:17.585Z,15.33
2019-02-25T09:46:20.433Z,16.27
2019-02-25T09:48:48.940Z,17.27
2019-02-25T09:51:17.265Z,15.20
2019-02-25T09:53:45.785Z,14.50
2019-02-25T09:56:14.433Z,15.03
2019-02-25T09:58:42.863Z,15.45
2019-02-25T10:01:15.031Z,14.77
2019-02-25T10:03:43.619Z,17.63
2019-02-25T10:06:12.975Z,17.87
2019-02-25T10:08:41.518Z,15.00
2019-02-25T10:11:09.826Z,13.87
2019-02-25T10:13:38.229Z,15.08
2019-02-25T10:16:06.572Z,15.00
2019-02-25T10:18:35.302Z,14.57
2019-02-25T10:21:04.536Z,14.80
2019-02-25T10:23:32.846Z,12.53
2019-02-25T10:26:01.268Z,15.05
2019-02-25T10:28:29.526Z,14.15
2019-02-25T10:30:57.804Z,13.80
2019-02-25T10:33:26.112Z,15.07
2019-02-25T10:35:54.351Z,14.27
2019-02-25T10:38:22.626Z,13.67
2019-02-25T10:40:52.173Z,14.63
2019-02-25T10:43:21.079Z,14.13
2019-02-25T10:45:49.370Z,16.37
2019-02-25T10:48:19.954Z,15.60
2019-02-25T10:50:55.803Z,14.13
2019-02-25T10:53:19.861Z,15.43
2019-02-25T10:56:07.653Z,15.98
2019-02-25T10:58:36.204Z,15.70
2019-02-25T11:01:04.690Z,15.67
2019-02-25T11:03:33.046Z,13.83
2019-02-25T11:06:03.142Z,14.30
2019-02-25T11:08:31.916Z,15.20
2019-02-25T11:11:16.789Z,15.67
2019-02-25T11:13:47.535Z,15.27
2019-02-25T11:16:16.565Z,16.33
2019-02-25T11:18:46.273Z,17.43
2019-02-25T11:21:15.469Z,18.30
2019-02-25T11:23:45.181Z,17.63
2019-02-25T11:26:13.873Z,16.90
2019-02-25T11:28:43.766Z,16.40
2019-02-25T11:31:12.324Z,17.63
2019-02-25T11:33:41.247Z,17.40
2019-02-25T11:36:10.640Z,16.37
2019-02-25T11:38:39.967Z,17.70
2019-02-25T11:41:09.473Z,15.87
2019-02-25T11:43:38.494Z,14.97
2019-02-25T11:46:06.927Z,17.30
2019-02-25T11:48:35.251Z,16.83
2019-02-25T11:51:03.652Z,15.43
2019-02-25T11:53:31.894Z,13.53
2019-02-25T11:56:00.193Z,13.87
2019-02-25T11:58:28.438Z,13.43
2019-02-25T12:00:56.977Z,13.98
2019-02-25T12:03:25.284Z,15.30
2019-02-25T12:05:53.508Z,13.60
2019-02-25T12:08:21.804Z,13.80
2019-02-25T12:10:50.105Z,14.63
2019-02-25T12:13:18.438Z,14.30
2019-02-25T12:15:46.733Z,15.07
2019-02-25T12:18:15.093Z,14.83
2019-02-25T12:20:43.410Z,15.10
2019-02-25T12:23:11.853Z,12.13
2019-02-25T12:25:40.230Z,13.20
2019-02-25T12:28:08.736Z,13.87
2019-02-25T12:30:37.249Z,13.87
2019-02-25T12:33:05.532Z,12.37
2019-02-25T12:35:33.893Z,13.73
2019-02-25T12:38:02.252Z,14.00
2019-02-25T12:40:30.563Z,14.20
2019-02-25T12:42:59.066Z,12.33
2019-02-25T12:45:27.467Z,12.00
2019-02-25T12:47:55.875Z,11.43
2019-02-25T12:50:24.230Z,12.87
2019-02-25T12:52:52.499Z,13.60
2019-02-25T12:55:20.894Z,12.77
2019-02-25T12:57:49.310Z,11.30
2019-02-25T13:00:17.735Z,10.23
2019-02-25T13:02:46.062Z,12.37
2019-02-25T13:05:14.839Z,11.95
2019-02-25T13:07:43.288Z,12.20
2019-02-25T13:10:12.143Z,11.73
2019-02-25T13:12:40.459Z,12.68
2019-02-25T13:17:39.737Z,11.27
2019-02-25T13:20:08.313Z,11.27
2019-02-25T13:22:37.748Z,11.73
2019-02-25T13:25:08.057Z,10.80
2019-02-25T13:27:37.882Z,10.30
2019-02-25T13:30:07.445Z,9.90
2019-02-25T13:32:35.848Z,10.07
2019-02-25T13:35:04.256Z,11.30
2019-02-25T13:37:32.710Z,12.10
2019-02-25T13:40:01.027Z,11.20
2019-02-25T13:42:29.429Z,11.53
2019-02-25T13:44:57.738Z,10.20
2019-02-25T13:47:26.170Z,11.28
2019-02-25T13:49:55.535Z,10.17
2019-02-25T13:52:25.149Z,11.03
2019-02-25T13:54:53.670Z,12.33
2019-02-25T13:57:22.051Z,12.80
2019-02-25T13:59:50.623Z,12.37
2019-02-25T14:02:19.069Z,11.87
2019-02-25T14:04:47.410Z,12.07
2019-02-25T14:07:16.182Z,12.47
2019-02-25T14:09:44.495Z,13.03
2019-02-25T14:12:14.978Z,13.60
2019-02-25T14:14:43.115Z,11.77
2019-02-25T14:17:11.511Z,12.73
2019-02-25T14:19:39.790Z,12.83
2019-02-25T14:22:08.249Z,12.80
2019-02-25T14:24:38.533Z,13.37
2019-02-25T14:27:07.061Z,13.17
2019-02-25T14:29:35.489Z,13.37
2019-02-25T14:32:03.814Z,14.30
2019-02-25T14:34:32.244Z,12.77
2019-02-25T14:37:02.668Z,13.03
2019-02-25T14:39:32.732Z,13.77
2019-02-25T14:42:01.716Z,15.10
2019-02-25T14:44:33.165Z,15.23
2019-02-25T14:47:03.432Z,14.77
2019-02-25T14:49:32.680Z,15.20
2019-02-25T14:52:01.821Z,15.63
2019-02-25T14:57:30.859Z,15.90
2019-02-25T14:59:59.922Z,16.47
2019-02-25T15:02:28.260Z,16.07
2019-02-25T15:04:56.483Z,16.07
2019-02-25T15:07:24.872Z,16.93
2019-02-25T15:09:53.272Z,18.50
2019-02-25T15:12:23.617Z,17.90
2019-02-25T15:14:51.930Z,17.80
2019-02-25T15:17:20.409Z,17.90
2019-02-25T15:19:49.006Z,19.93
2019-02-25T15:22:17.352Z,21.83
2019-02-25T15:24:48.304Z,23.33
2019-02-25T15:27:18.135Z,21.67
2019-02-25T15:29:47.207Z,21.57
2019-02-25T15:32:16.770Z,22.87
2019-02-25T15:34:46.488Z,20.73
2019-02-25T15:37:15.603Z,22.53
2019-02-25T15:39:43.976Z,22.07
2019-02-25T15:42:14.828Z,21.50
2019-02-25T15:44:46.605Z,22.10
2019-02-25T15:47:15.085Z,21.47
2019-02-25T15:49:43.609Z,22.80
2019-02-25T15:52:14.432Z,23.93
2019-02-25T15:54:43.603Z,23.67
2019-02-25T15:57:12.343Z,23.90
2019-02-25T15:59:40.802Z,24.00
2019-02-25T16:02:10.478Z,26.10
2019-02-25T16:04:40.288Z,24.97
2019-02-25T16:07:10.561Z,25.43
2019-02-25T16:09:39.107Z,26.37
2019-02-25T16:12:09.454Z,26.00
2019-02-25T16:14:38.960Z,25.20
2019-02-25T16:17:07.594Z,24.83
2019-02-25T16:19:41.562Z,26.23
2019-02-25T16:22:07.943Z,27.47
2019-02-25T16:24:36.334Z,27.07
2019-02-25T16:27:05.825Z,25.63
2019-02-25T16:29:34.458Z,27.37
2019-02-25T16:32:03.344Z,29.27
2019-02-25T16:34:32.524Z,27.30
2019-02-25T16:37:02.583Z,29.50
2019-02-25T16:39:32.391Z,30.10
2019-02-25T16:42:00.607Z,29.20
2019-02-25T16:44:29.158Z,32.50
2019-02-25T16:46:58.596Z,33.50
2019-02-25T16:49:27.933Z,34.57
2019-02-25T16:51:58.201Z,36.33
2019-02-25T16:54:27.706Z,34.77
2019-02-25T16:56:56.307Z,34.23
2019-02-25T16:59:24.970Z,34.83
2019-02-25T17:01:55.796Z,35.77
2019-02-25T17:04:25.514Z,34.93
2019-02-25T17:06:55.524Z,37.13
2019-02-25T17:09:26.908Z,39.27
2019-02-25T17:11:55.397Z,37.90
2019-02-25T17:14:25.604Z,37.03
2019-02-25T17:16:56.542Z,39.23
2019-02-25T17:19:24.363Z,39.40
2019-02-25T17:21:53.089Z,37.93
2019-02-25T17:24:24.104Z,43.60
2019-02-25T17:26:51.879Z,45.20
2019-02-25T17:29:23.119Z,46.70
2019-02-25T17:31:52.721Z,46.00
2019-02-25T17:34:21.560Z,45.70
2019-02-25T17:36:50.760Z,46.73
2019-02-25T17:39:20.120Z,50.63
2019-02-25T17:41:48.601Z,51.10
2019-02-25T17:44:17.899Z,49.77
2019-02-25T17:46:47.471Z,49.73
2019-02-25T17:49:19.004Z,47.13
2019-02-25T17:51:49.015Z,44.27
2019-02-25T17:54:17.535Z,44.37
2019-02-25T17:56:47.487Z,45.80
2019-02-25T17:59:17.068Z,44.87
2019-02-25T18:01:46.300Z,48.60
2019-02-25T18:04:16.758Z,50.23
2019-02-25T18:06:46.948Z,47.60
2019-02-25T18:09:16.528Z,48.00
2019-02-25T18:11:47.709Z,46.97
2019-02-25T18:14:17.530Z,47.90
2019-02-25T18:16:49.443Z,48.80
2019-02-25T18:19:20.287Z,50.53
2019-02-25T18:21:49.360Z,48.67
2019-02-25T18:24:18.482Z,60.75
2019-02-25T18:26:48.458Z,55.40
2019-02-25T18:29:18.574Z,52.70
2019-02-25T18:31:48.550Z,49.43
2019-02-25T18:34:17.601Z,48.40
2019-02-25T18:36:46.851Z,49.20
2019-02-25T18:39:17.850Z,46.17
2019-02-25T18:41:48.361Z,45.47
2019-02-25T18:44:20.383Z,48.67
2019-02-25T18:46:50.345Z,47.50
2019-02-25T18:49:20.217Z,49.07
2019-02-25T18:51:49.268Z,46.93
2019-02-25T18:54:19.114Z,47.27
2019-02-25T18:56:48.771Z,47.27
2019-02-25T18:59:18.547Z,46.97
2019-02-25T19:01:49.328Z,48.20
2019-02-25T19:04:19.678Z,54.47
2019-02-25T19:06:48.686Z,58.47
2019-02-25T19:09:20.579Z,56.53
2019-02-25T19:11:50.814Z,57.70
2019-02-25T19:14:21.833Z,47.50
2019-02-25T19:16:50.832Z,50.30
2019-02-25T19:19:19.890Z,52.67
2019-02-25T19:21:49.970Z,51.27
2019-02-25T19:24:19.887Z,51.27
2019-02-25T19:26:49.092Z,47.90
2019-02-25T19:29:19.607Z,50.07
2019-02-25T19:31:50.379Z,48.43
2019-02-25T19:34:19.483Z,53.90
2019-02-25T19:36:48.468Z,51.43
2019-02-25T19:39:19.761Z,56.50
2019-02-25T19:41:49.249Z,58.63
2019-02-25T19:44:21.134Z,58.23
2019-02-25T19:46:51.306Z,56.37
2019-02-25T19:49:21.067Z,50.00
2019-02-25T19:51:50.919Z,51.60
2019-02-25T19:54:21.075Z,80.30
2019-02-25T19:56:53.192Z,60.80
2019-02-25T19:59:23.993Z,56.03
2019-02-25T20:01:52.986Z,56.03
2019-02-25T20:04:22.093Z,57.47
2019-02-25T20:06:51.814Z,59.20
2019-02-25T20:09:22.589Z,58.03
2019-02-25T20:11:51.214Z,60.63
2019-02-25T20:14:19.801Z,58.00
2019-02-25T20:16:48.403Z,56.93
2019-02-25T20:19:17.006Z,57.03
2019-02-25T20:21:45.670Z,59.13
2019-02-25T20:24:16.798Z,60.80
2019-02-25T20:26:48.630Z,72.87
2019-02-25T20:29:15.558Z,66.70
2019-02-25T20:31:43.995Z,58.67
2019-02-25T20:34:12.453Z,59.27
2019-02-25T20:36:40.817Z,67.10
2019-02-25T20:39:10.295Z,63.23
2019-02-25T20:41:38.575Z,53.30
2019-02-25T20:44:07.027Z,56.03
2019-02-25T20:46:35.410Z,53.47
2019-02-25T20:49:04.449Z,52.90
2019-02-25T20:51:33.872Z,53.43
2019-02-25T20:54:03.071Z,54.60
2019-02-25T20:56:33.171Z,52.37
2019-02-25T20:59:03.487Z,50.50
2019-02-25T21:01:35.190Z,50.13
2019-02-25T21:04:02.396Z,49.57
2019-02-25T21:06:32.526Z,48.90
2019-02-25T21:09:02.477Z,49.60
2019-02-25T21:11:33.115Z,41.27
2019-02-25T21:14:01.551Z,45.77
2019-02-25T21:16:30.584Z,40.03
2019-02-25T21:18:59.979Z,45.13
2019-02-25T21:21:30.274Z,48.60
2019-02-25T21:24:01.338Z,51.73
2019-02-25T21:26:29.409Z,50.43
2019-02-25T21:29:00.172Z,50.40
2019-02-25T21:31:28.843Z,55.40
2019-02-25T21:33:58.788Z,57.17
2019-02-25T21:36:29.620Z,56.67
2019-02-25T21:38:58.460Z,56.83
2019-02-25T21:41:26.805Z,57.77
2019-02-25T21:43:57.040Z,56.27
2019-02-25T21:46:26.556Z,54.77
2019-02-25T21:48:57.070Z,60.00
2019-02-25T21:51:28.079Z,55.90
2019-02-25T21:53:57.601Z,55.73
2019-02-25T21:56:27.000Z,51.67
2019-02-25T21:58:55.754Z,58.53
2019-02-25T22:01:24.147Z,55.77
2019-02-25T22:03:54.523Z,54.40
2019-02-25T22:06:24.918Z,51.80
2019-02-25T22:08:54.193Z,50.53
2019-02-25T22:11:23.077Z,50.87
2019-02-25T22:13:51.482Z,50.93
2019-02-25T22:16:21.898Z,44.57
2019-02-25T22:18:52.003Z,43.97
2019-02-25T22:21:21.150Z,41.53
2019-02-25T22:23:54.201Z,44.43
2019-02-25T22:26:19.845Z,42.40
2019-02-25T22:28:48.317Z,42.50
2019-02-25T22:31:18.166Z,41.13
2019-02-25T22:33:46.661Z,44.20
2019-02-25T22:36:15.171Z,43.70
2019-02-25T22:38:43.408Z,43.87
2019-02-25T22:41:11.690Z,44.77
2019-02-25T22:43:43.170Z,45.43
2019-02-25T22:46:11.642Z,46.03
2019-02-25T22:48:43.300Z,45.57
2019-02-25T22:51:11.543Z,43.30
2019-02-25T22:53:39.763Z,44.57
2019-02-25T22:56:11.522Z,41.80
2019-02-25T22:58:39.068Z,42.67
2019-02-25T23:01:10.119Z,42.70
2019-02-25T23:03:42.925Z,41.60
2019-02-25T23:06:13.273Z,43.53
2019-02-25T23:08:42.144Z,43.50
2019-02-25T23:11:12.196Z,41.73
2019-02-25T23:13:40.351Z,37.50
2019-02-25T23:16:08.733Z,35.63
2019-02-25T23:18:37.192Z,42.00
2019-02-25T23:21:05.569Z,37.90
2019-02-25T23:23:35.606Z,38.03
2019-02-25T23:26:04.333Z,38.80
2019-02-25T23:28:32.534Z,38.77
2019-02-25T23:31:00.987Z,38.27
2019-02-25T23:33:29.401Z,37.63
2019-02-25T23:35:59.329Z,39.13
2019-02-25T23:38:27.662Z,37.73
2019-02-25T23:40:56.104Z,38.03
2019-02-25T23:43:24.509Z,39.23
2019-02-25T23:45:52.971Z,37.80
2019-02-25T23:48:21.154Z,38.33
2019-02-25T23:50:50.333Z,38.37
2019-02-25T23:53:19.534Z,36.90
2019-02-25T23:55:50.071Z,34.33
2019-02-25T23:58:20.207Z,34.90
